Wausa, NE

12:42 AM CDT on May 26, 2015 (GMT -0500)
Wayne Municipal | | Change Station
CLOSE
Current Station
Airport
Location: Wayne,
Elevation: 1430 ft
Nearby Weather Stations

Elev 1430 ft 42.24 °N, 96.98 °W | Updated 7 minutes ago

Rain
Rain
60 °F
Feels Like 60 °F
N
8
Wind Variable Wind from NNW

Today
High -- | Low -- °F
--% Chance of Precip.
Yesterday
High -- | Low -- °F
Precip. -- in
5:59 AM 8:55 PM
First Quarter, 55% visible
Pressure 29.81 in
Visibility 10.0 miles
Clouds Scattered Clouds 5500 ft
Scattered Clouds 8000 ft
Mostly Cloudy 8500 ft
Dew Point 55 °F
Humidity 83%
Rainfall 0.01 in
Snow Depth Not available.
UV 0 out of 12
Pollen 3.40 out of 12
Air Quality Not available.
Flu Activity No Activity
METAR KLCG 260535Z AUTO 34007KT 10SM VCTS SCT055 SCT080 BKN085 16/13 A2981 RMK AO2 LTG DSNT N THRU SE P0001 T01550126

More Conditions Fewer Conditions

Pressure 29.81 in
Visibility 10.0 miles
Clouds Scattered Clouds 5500 ft
Scattered Clouds 8000 ft
Mostly Cloudy 8500 ft
Dew Point 55 °F
Humidity 83%
Rainfall 0.01 in
Snow Depth Not available.
UV 0 out of 12
Pollen 3.40 out of 12
Air Quality Not available.
Flu Activity No Activity
METAR KLCG 260535Z AUTO 34007KT 10SM VCTS SCT055 SCT080 BKN085 16/13 A2981 RMK AO2 LTG DSNT N THRU SE P0001 T01550126

More Conditions Fewer Conditions

10-Day Weather Forecast

Almanac

Astronomy

May. 26, 2015 Rise Set
Actual Time
Civil Twilight
Nautical Twilight
Astronomical Twilight
Moon
Length of Visible Light
Length of Day
Tomorrow will be .
, % of the Moon is Illuminated

Today's Extremes

State Highs State Lows

Community

WunderPhotos

Upload Photos

1,824,289 photos uploaded!

WunderBlogs® & News

Nearby

Air Quality

  Air Quality AQ Index Pollutant
Not available.

Snow Depth

Station Depth Elevation

Earthquake Activity

City Distance Mag. Time & Date
Minimum magnitude displayed is 2.5.

Coastal Water Temperatures

Place Temperature

Stations

Nearby Weather Stations

Station Location Temp. Windchill Dew Point Humidity Wind Precip. Elev Updated Type